Time;durP1;ratioP1;P1;durP2;ratioP2;P2;SDS_P1;SDS_P2;PMS_P1;PMS_P2;Temp;Humidity;BMP_temperature;BMP_pressure;BME280_temperature;BME280_humidity;BME280_pressure;Samples;Min_cycle;Max_cycle;Signal;HPM_P1;HPM_P2
2021/04/25 00:02:16;;;;;;;6.63;2.35;;;20.50;32.20;;;;;;6224885;28;20037;-79
2021/04/25 00:05:19;;;;;;;2.25;1.80;;;20.50;32.40;;;;;;6208687;28;20033;-79
2021/04/25 00:08:20;;;;;;;3.15;2.22;;;20.40;32.70;;;;;;6224713;28;20644;-79
2021/04/25 00:11:22;;;;;;;4.07;2.35;;;20.40;32.70;;;;;;6224829;28;20120;-79
2021/04/25 00:14:23;;;;;;;4.43;2.75;;;20.30;32.90;;;;;;6225079;28;20029;-78
2021/04/25 00:17:26;;;;;;;5.65;3.15;;;20.30;33.10;;;;;;6208294;28;20088;-78
2021/04/25 00:20:28;;;;;;;4.72;2.72;;;20.30;33.30;;;;;;6207884;28;20026;-79
2021/04/25 00:23:37;;;;;;;3.08;2.00;;;20.20;33.50;;;;;;6224644;28;20040;-80
2021/04/25 00:26:38;;;;;;;5.80;2.25;;;20.20;33.70;;;;;;6208073;28;20033;-79
2021/04/25 00:29:40;;;;;;;6.32;2.03;;;20.20;33.70;;;;;;6226221;28;20372;-79
2021/04/25 00:32:41;;;;;;;7.28;2.10;;;20.10;33.60;;;;;;6216082;28;20041;-79
2021/04/25 00:35:45;;;;;;;3.20;2.13;;;20.10;33.80;;;;;;6249761;28;20034;-79
2021/04/25 00:38:46;;;;;;;3.47;2.35;;;20.00;33.80;;;;;;6216306;28;20356;-79
2021/04/25 00:41:48;;;;;;;7.20;3.00;;;20.00;34.00;;;;;;6216277;28;20048;-79
2021/04/25 00:44:56;;;;;;;3.97;2.42;;;20.00;34.20;;;;;;6200910;28;20041;-79
2021/04/25 00:48:00;;;;;;;9.57;2.55;;;19.90;34.30;;;;;;6231673;28;20090;-79
2021/04/25 00:51:02;;;;;;;4.30;2.90;;;19.90;34.80;;;;;;6250038;28;20021;-79
2021/04/25 00:54:11;;;;;;;3.72;2.70;;;19.80;35.50;;;;;;6216670;28;20060;-79
2021/04/25 00:57:15;;;;;;;6.32;2.88;;;19.80;35.90;;;;;;6216043;28;20064;-79
2021/04/25 01:00:22;;;;;;;3.72;2.60;;;19.70;36.10;;;;;;6232282;28;20029;-80
2021/04/25 01:03:23;;;;;;;4.40;2.83;;;19.50;36.10;;;;;;6215680;28;20030;-79
2021/04/25 01:06:24;;;;;;;4.78;2.78;;;19.60;36.40;;;;;;6215759;28;20029;-79
2021/04/25 01:09:25;;;;;;;4.65;2.75;;;19.50;36.80;;;;;;6232098;28;20029;-78
2021/04/25 01:12:29;;;;;;;4.70;2.65;;;19.40;37.00;;;;;;6232088;28;20372;-79
2021/04/25 01:15:31;;;;;;;3.40;2.33;;;19.30;37.20;;;;;;6215469;28;20048;-79
2021/04/25 01:18:38;;;;;;;5.63;2.55;;;19.30;37.50;;;;;;6249561;28;20360;-79
2021/04/25 01:21:39;;;;;;;4.50;2.80;;;19.20;37.60;;;;;;6199849;28;20026;-79
2021/04/25 01:24:47;;;;;;;4.65;2.60;;;19.10;37.90;;;;;;6207486;28;20053;-78
2021/04/25 01:27:49;;;;;;;4.35;2.65;;;19.00;38.00;;;;;;6191060;28;20033;-79
2021/04/25 01:30:51;;;;;;;2.83;2.28;;;19.00;38.30;;;;;;6210933;28;20098;-79
2021/04/25 01:33:53;;;;;;;4.45;2.35;;;18.90;38.50;;;;;;6227919;28;20109;-80
2021/04/25 01:36:56;;;;;;;2.75;2.30;;;18.90;38.50;;;;;;6207429;28;20033;-78
2021/04/25 01:39:58;;;;;;;4.00;2.33;;;18.90;38.70;;;;;;6204719;28;20064;-79
2021/04/25 01:43:00;;;;;;;3.95;2.45;;;18.70;38.70;;;;;;6187374;28;20072;-78
2021/04/25 01:46:01;;;;;;;10.25;2.40;;;18.80;39.00;;;;;;6203875;28;20042;-78
2021/04/25 01:49:03;;;;;;;3.60;2.58;;;18.70;39.10;;;;;;6203798;28;20105;-80
2021/04/25 01:52:04;;;;;;;4.05;2.80;;;18.70;39.10;;;;;;6204362;28;20139;-79
2021/04/25 01:55:07;;;;;;;5.60;2.72;;;18.60;39.10;;;;;;6203404;28;20034;-79
2021/04/25 01:58:10;;;;;;;5.15;2.88;;;18.60;39.10;;;;;;6203227;28;20034;-79
2021/04/25 02:01:11;;;;;;;4.45;2.75;;;18.60;39.20;;;;;;6203274;28;20061;-79
2021/04/25 02:04:13;;;;;;;3.95;2.70;;;18.60;39.50;;;;;;6186774;28;20042;-79
2021/04/25 02:07:22;;;;;;;3.35;2.50;;;18.60;39.80;;;;;;6203146;28;20037;-79
2021/04/25 02:10:24;;;;;;;3.75;2.22;;;18.60;39.90;;;;;;6203308;28;20035;-79
2021/04/25 02:13:25;;;;;;;5.18;2.60;;;18.50;39.90;;;;;;6202938;28;20103;-79
2021/04/25 02:16:33;;;;;;;3.53;2.20;;;18.50;40.10;;;;;;6202849;28;20445;-78
2021/04/25 02:19:34;;;;;;;3.53;2.55;;;18.40;40.00;;;;;;6186634;28;20089;-78
2021/04/25 02:22:35;;;;;;;3.80;3.00;;;18.40;40.10;;;;;;6202467;28;20041;-79
2021/04/25 02:25:37;;;;;;;9.90;2.75;;;18.40;40.30;;;;;;6205175;28;20026;-79
2021/04/25 02:28:38;;;;;;;3.10;2.35;;;18.30;40.50;;;;;;6188876;28;20044;-79
2021/04/25 02:31:39;;;;;;;8.27;2.75;;;18.30;40.60;;;;;;6203555;28;20366;-79
2021/04/25 02:34:41;;;;;;;7.15;2.67;;;18.20;40.60;;;;;;6204854;28;20467;-79
2021/04/25 02:37:43;;;;;;;3.28;2.60;;;18.20;40.60;;;;;;6188621;28;20081;-79
2021/04/25 02:40:44;;;;;;;5.28;3.15;;;18.20;40.90;;;;;;6188283;28;20030;-78
2021/04/25 02:43:45;;;;;;;5.10;2.67;;;18.20;41.70;;;;;;6204072;28;20027;-79
2021/04/25 02:46:46;;;;;;;4.65;2.60;;;18.10;41.30;;;;;;6187766;28;20048;-78
2021/04/25 02:49:47;;;;;;;4.80;2.42;;;18.10;41.40;;;;;;6202674;28;20068;-78
2021/04/25 02:52:48;;;;;;;5.93;2.60;;;18.00;41.40;;;;;;6201968;28;20044;-79
2021/04/25 02:55:49;;;;;;;4.28;2.53;;;18.00;41.60;;;;;;6202155;28;21881;-78
2021/04/25 02:58:50;;;;;;;5.38;2.60;;;18.00;42.20;;;;;;6202124;28;20041;-78
2021/04/25 03:01:52;;;;;;;5.85;2.88;;;17.90;41.70;;;;;;6201740;28;20026;-79
2021/04/25 03:04:54;;;;;;;5.97;2.80;;;17.90;41.90;;;;;;6202194;28;20390;-79
2021/04/25 03:07:55;;;;;;;5.75;3.00;;;17.90;42.00;;;;;;6186053;28;20113;-79
2021/04/25 03:10:56;;;;;;;4.80;3.17;;;17.90;42.10;;;;;;6202108;28;20073;-79
2021/04/25 03:13:57;;;;;;;7.15;3.00;;;17.80;42.20;;;;;;6185712;28;20042;-79
2021/04/25 03:16:58;;;;;;;4.65;2.50;;;17.80;42.30;;;;;;6185172;28;20038;-78
2021/04/25 03:20:08;;;;;;;4.50;2.95;;;17.80;42.20;;;;;;6201443;28;20050;-78
2021/04/25 03:23:09;;;;;;;4.53;3.35;;;17.70;42.30;;;;;;6185063;28;20038;-78
2021/04/25 03:26:10;;;;;;;3.40;2.70;;;17.70;42.40;;;;;;6185286;28;20424;-78
2021/04/25 03:29:11;;;;;;;7.32;2.78;;;17.70;42.60;;;;;;6185235;28;20030;-79
2021/04/25 03:32:12;;;;;;;4.15;2.33;;;17.60;42.60;;;;;;6202178;28;20425;-78
2021/04/25 03:35:16;;;;;;;5.10;3.10;;;17.60;42.80;;;;;;6174717;28;20408;-78
2021/04/25 03:38:20;;;;;;;4.55;3.08;;;17.60;43.10;;;;;;6191987;28;20444;-80
2021/04/25 03:41:21;;;;;;;5.45;3.17;;;17.50;43.30;;;;;;6202546;28;20030;-79
2021/04/25 03:44:22;;;;;;;4.40;2.67;;;17.50;43.40;;;;;;6192099;28;20034;-78
2021/04/25 03:47:23;;;;;;;3.92;2.70;;;17.40;43.50;;;;;;6184364;28;20365;-78
2021/04/25 03:50:27;;;;;;;4.60;2.80;;;17.40;43.80;;;;;;6185090;28;20030;-77
2021/04/25 03:53:28;;;;;;;7.57;2.97;;;17.40;44.00;;;;;;6201871;28;20034;-78
2021/04/25 03:56:29;;;;;;;6.20;2.92;;;17.40;44.10;;;;;;6168457;28;20038;-78
2021/04/25 03:59:30;;;;;;;16.33;2.80;;;17.40;44.10;;;;;;6201678;28;20022;-78
2021/04/25 04:02:33;;;;;;;9.13;3.17;;;17.40;44.30;;;;;;6194712;28;20040;-77
2021/04/25 04:05:35;;;;;;;5.75;3.42;;;17.30;44.60;;;;;;6225296;28;20405;-77
2021/04/25 04:08:36;;;;;;;3.72;3.15;;;17.30;44.80;;;;;;6191569;28;20026;-79
2021/04/25 04:11:38;;;;;;;4.45;3.35;;;17.20;45.00;;;;;;6208638;28;20042;-79
2021/04/25 04:14:41;;;;;;;15.05;3.83;;;17.20;45.10;;;;;;6209086;28;20030;-79
2021/04/25 04:17:42;;;;;;;5.60;3.33;;;17.20;45.00;;;;;;6208306;28;20091;-80
2021/04/25 04:20:43;;;;;;;5.97;3.50;;;17.20;45.10;;;;;;6207958;28;20075;-79
2021/04/25 04:23:45;;;;;;;6.75;3.58;;;17.10;45.30;;;;;;6191804;28;20045;-79
2021/04/25 04:26:46;;;;;;;9.00;3.63;;;17.10;45.50;;;;;;6191672;28;20038;-80
2021/04/25 04:29:47;;;;;;;5.57;3.28;;;17.10;45.60;;;;;;6191101;28;20056;-79
2021/04/25 04:32:48;;;;;;;5.25;3.13;;;17.00;45.60;;;;;;6205445;28;20037;-79
2021/04/25 04:35:49;;;;;;;3.97;2.97;;;17.00;46.00;;;;;;6200880;28;20034;-79
2021/04/25 04:38:51;;;;;;;8.25;3.30;;;16.90;46.10;;;;;;6201677;28;20030;-78
2021/04/25 04:41:52;;;;;;;4.18;3.20;;;16.90;46.20;;;;;;6152795;28;20117;-79
2021/04/25 04:44:53;;;;;;;5.72;3.10;;;16.80;46.30;;;;;;6180317;28;20041;-79
2021/04/25 04:47:56;;;;;;;4.45;2.92;;;16.80;46.40;;;;;;6188424;28;20042;-80
2021/04/25 04:50:58;;;;;;;6.40;2.70;;;16.80;46.50;;;;;;6201162;28;20077;-79
2021/04/25 04:54:02;;;;;;;5.85;2.83;;;16.80;46.60;;;;;;6191373;28;20129;-79
2021/04/25 04:57:03;;;;;;;7.03;3.25;;;16.70;46.80;;;;;;6206975;28;20026;-79
2021/04/25 05:00:06;;;;;;;5.50;3.25;;;16.70;47.00;;;;;;6206768;28;20037;-78
2021/04/25 05:03:07;;;;;;;5.60;2.85;;;16.60;47.00;;;;;;6206626;28;20030;-78
2021/04/25 05:06:08;;;;;;;7.53;3.22;;;16.60;47.10;;;;;;6224574;28;20037;-78
2021/04/25 05:09:09;;;;;;;9.50;3.17;;;16.60;47.00;;;;;;6211440;28;20480;-80
2021/04/25 05:12:10;;;;;;;7.18;3.40;;;16.60;47.00;;;;;;6179868;28;20125;-78
2021/04/25 05:15:11;;;;;;;4.05;2.65;;;16.60;46.80;;;;;;6229704;28;20040;-78
2021/04/25 05:18:12;;;;;;;5.78;3.53;;;16.70;47.00;;;;;;6229105;28;20022;-79
2021/04/25 05:21:14;;;;;;;5.82;3.20;;;16.70;47.00;;;;;;6196191;28;20038;-78
2021/04/25 05:24:15;;;;;;;8.50;3.10;;;16.70;47.10;;;;;;6191754;28;20065;-80
2021/04/25 05:27:16;;;;;;;9.50;3.45;;;16.70;47.00;;;;;;6183347;28;20463;-79
2021/04/25 05:30:18;;;;;;;5.75;3.50;;;16.70;46.90;;;;;;6188174;28;20362;-79
2021/04/25 05:33:19;;;;;;;6.72;3.60;;;16.70;47.00;;;;;;6190299;28;20035;-79
2021/04/25 05:36:20;;;;;;;4.97;3.42;;;16.70;46.90;;;;;;6204844;28;20085;-80
2021/04/25 05:39:22;;;;;;;5.65;3.65;;;16.80;47.10;;;;;;6171812;28;20022;-79
2021/04/25 05:42:23;;;;;;;5.85;3.53;;;16.80;47.20;;;;;;6188076;28;20053;-78
2021/04/25 05:45:24;;;;;;;5.45;3.15;;;16.80;47.00;;;;;;6217332;28;20026;-79
2021/04/25 05:48:25;;;;;;;5.43;3.08;;;16.90;47.10;;;;;;6187492;28;20030;-78
2021/04/25 05:51:26;;;;;;;11.35;3.42;;;16.90;47.10;;;;;;6171498;28;20030;-78
2021/04/25 05:54:27;;;;;;;4.93;3.08;;;16.90;47.00;;;;;;6187143;28;20397;-78
2021/04/25 05:57:29;;;;;;;4.82;3.17;;;16.90;47.00;;;;;;6204751;28;20041;-79
2021/04/25 06:00:33;;;;;;;5.65;3.08;;;16.90;47.00;;;;;;6189607;28;20457;-78
2021/04/25 06:03:35;;;;;;;6.90;3.85;;;17.00;47.00;;;;;;6182577;28;20471;-80
2021/04/25 06:06:36;;;;;;;8.93;4.57;;;17.00;47.30;;;;;;6194446;28;20095;-79
2021/04/25 06:09:37;;;;;;;11.18;4.82;;;17.00;46.40;;;;;;6199256;28;20134;-78
2021/04/25 06:12:38;;;;;;;10.85;4.55;;;17.10;46.30;;;;;;6189836;28;20098;-78
2021/04/25 06:15:40;;;;;;;9.68;4.78;;;17.10;46.20;;;;;;6191465;28;20026;-78
2021/04/25 06:18:41;;;;;;;8.68;5.95;;;17.10;46.20;;;;;;6216326;28;20408;-78
2021/04/25 06:21:42;;;;;;;7.55;4.63;;;17.20;46.20;;;;;;6223337;28;20433;-81
2021/04/25 06:24:43;;;;;;;11.10;5.35;;;17.10;46.20;;;;;;6206288;28;20099;-79
2021/04/25 06:27:45;;;;;;;5.25;4.03;;;17.20;46.30;;;;;;6205688;28;20030;-79
2021/04/25 06:30:46;;;;;;;6.03;4.40;;;17.20;46.20;;;;;;6208524;28;20373;-78
2021/04/25 06:33:48;;;;;;;9.02;4.72;;;17.20;46.00;;;;;;6223799;28;20033;-78
2021/04/25 06:36:51;;;;;;;8.10;4.03;;;17.30;46.00;;;;;;6220810;28;20088;-79
2021/04/25 06:39:52;;;;;;;5.85;3.88;;;17.30;46.00;;;;;;6206022;28;20121;-78
2021/04/25 06:42:53;;;;;;;6.72;4.22;;;17.30;45.90;;;;;;6193820;28;20038;-79
2021/04/25 06:45:54;;;;;;;6.30;3.58;;;17.40;46.00;;;;;;6208214;28;20034;-79
2021/04/25 06:48:55;;;;;;;5.00;3.50;;;17.40;45.90;;;;;;6204712;28;20046;-79
2021/04/25 06:51:57;;;;;;;8.50;4.25;;;17.50;45.80;;;;;;6205057;28;20034;-79
2021/04/25 06:54:58;;;;;;;5.93;3.90;;;17.60;45.80;;;;;;6185275;28;20030;-80
2021/04/25 06:57:59;;;;;;;4.43;3.28;;;17.60;45.60;;;;;;6209171;28;20034;-80
2021/04/25 07:01:03;;;;;;;6.40;3.67;;;17.70;45.50;;;;;;6202814;28;20030;-80
2021/04/25 07:04:04;;;;;;;134.60;12.82;;;17.80;45.30;;;;;;6223295;28;20373;-79
2021/04/25 07:07:06;;;;;;;5.45;3.75;;;17.90;45.80;;;;;;6212715;28;20030;-80
2021/04/25 07:10:08;;;;;;;10.50;3.60;;;18.10;44.90;;;;;;6225456;28;20057;-81
2021/04/25 07:13:10;;;;;;;10.85;3.40;;;18.20;44.60;;;;;;6226121;28;20445;-80
2021/04/25 07:16:11;;;;;;;5.18;3.25;;;18.40;44.30;;;;;;6208971;28;20057;-80
2021/04/25 07:19:12;;;;;;;46.42;6.47;;;18.50;44.00;;;;;;6184924;28;20053;-80
2021/04/25 07:22:13;;;;;;;9.32;3.45;;;18.60;43.80;;;;;;6201788;28;20389;-78
2021/04/25 07:25:14;;;;;;;9.20;3.80;;;18.80;43.60;;;;;;6201117;28;20034;-79
2021/04/25 07:28:18;;;;;;;13.00;3.22;;;19.00;43.30;;;;;;6201811;28;20062;-81
2021/04/25 07:31:19;;;;;;;17.15;3.40;;;19.10;43.10;;;;;;6202098;28;20069;-81
2021/04/25 07:34:20;;;;;;;4.75;3.17;;;19.30;42.80;;;;;;6171604;28;20370;-79
2021/04/25 07:37:21;;;;;;;7.00;3.60;;;19.50;42.50;;;;;;6208725;28;20030;-79
2021/04/25 07:40:22;;;;;;;5.10;3.20;;;19.60;42.10;;;;;;6216977;28;20026;-80
2021/04/25 07:43:23;;;;;;;12.90;3.30;;;19.70;42.00;;;;;;6203008;28;20075;-81
2021/04/25 07:46:25;;;;;;;13.23;3.60;;;19.80;41.80;;;;;;6216735;28;20112;-81
2021/04/25 07:49:26;;;;;;;4.63;2.83;;;20.00;41.50;;;;;;6196427;28;20456;-82
2021/04/25 07:52:27;;;;;;;4.75;2.75;;;20.10;40.80;;;;;;6186537;28;20026;-81
2021/04/25 07:55:29;;;;;;;3.70;2.75;;;20.30;40.70;;;;;;6201128;28;20049;-81
2021/04/25 07:58:30;;;;;;;6.70;3.33;;;20.40;40.40;;;;;;6214840;28;20462;-81
2021/04/25 08:01:31;;;;;;;3.65;2.58;;;20.50;39.90;;;;;;6187059;28;20034;-80
2021/04/25 08:04:32;;;;;;;4.60;2.75;;;20.60;39.40;;;;;;6187342;28;20026;-80
2021/04/25 08:07:34;;;;;;;9.57;2.95;;;20.80;39.20;;;;;;6215033;28;20026;-79
2021/04/25 08:10:35;;;;;;;9.70;3.05;;;20.90;38.90;;;;;;6175193;28;20026;-81
2021/04/25 08:13:36;;;;;;;5.32;3.03;;;21.10;38.70;;;;;;6184915;28;20045;-79
2021/04/25 08:16:37;;;;;;;6.50;2.72;;;21.20;37.90;;;;;;6184940;28;20124;-79
2021/04/25 08:19:38;;;;;;;5.63;2.78;;;21.30;37.40;;;;;;6168839;28;20030;-80
2021/04/25 08:22:40;;;;;;;5.88;2.80;;;21.40;37.40;;;;;;6208720;28;20021;-81
2021/04/25 08:25:41;;;;;;;3.83;2.40;;;21.50;37.40;;;;;;6186241;28;20034;-79
2021/04/25 08:28:42;;;;;;;6.18;2.97;;;21.70;37.20;;;;;;6224924;28;20068;-79
2021/04/25 08:31:43;;;;;;;3.38;2.63;;;21.80;36.80;;;;;;6203389;28;20045;-80
2021/04/25 08:34:44;;;;;;;4.30;3.25;;;21.80;36.50;;;;;;6208816;28;20041;-80
2021/04/25 08:37:46;;;;;;;3.25;2.55;;;21.90;36.40;;;;;;6223450;28;20038;-80
2021/04/25 08:40:48;;;;;;;7.40;2.88;;;22.00;36.30;;;;;;6207039;28;20501;-77
2021/04/25 08:43:49;;;;;;;4.80;2.88;;;22.10;36.00;;;;;;6223445;28;20030;-77
2021/04/25 08:46:52;;;;;;;4.53;2.72;;;22.20;35.90;;;;;;6223055;28;20066;-77
2021/04/25 08:49:59;;;;;;;2.67;2.47;;;22.30;35.80;;;;;;6222850;28;20116;-78
2021/04/25 08:53:01;;;;;;;3.28;2.33;;;22.50;35.50;;;;;;6207165;28;20034;-81
2021/04/25 08:56:03;;;;;;;4.45;2.40;;;22.60;35.00;;;;;;6199916;28;20123;-79
2021/04/25 08:59:05;;;;;;;6.22;2.85;;;22.70;34.90;;;;;;6183825;28;20029;-80
2021/04/25 09:02:06;;;;;;;3.30;2.38;;;22.80;34.50;;;;;;6207480;28;20042;-81
2021/04/25 09:05:09;;;;;;;5.13;2.40;;;23.00;34.40;;;;;;6224101;28;20038;-79
2021/04/25 09:08:11;;;;;;;3.88;2.70;;;23.10;34.10;;;;;;6207258;28;20116;-80
2021/04/25 09:11:36;;;;;;;4.13;2.33;;;23.30;33.70;;;;;;6206489;28;20026;-80
2021/04/25 09:14:40;;;;;;;6.50;2.55;;;23.30;33.20;;;;;;6202770;28;20089;-81
2021/04/25 09:18:05;;;;;;;4.15;2.50;;;23.40;32.80;;;;;;6224672;28;20054;-81
2021/04/25 09:21:14;;;;;;;5.65;3.67;;;23.50;32.70;;;;;;6167424;28;20030;-81
2021/04/25 09:24:29;;;;;;;3.85;2.70;;;23.70;32.10;;;;;;6170185;28;20109;-81
2021/04/25 09:27:30;;;;;;;5.65;3.05;;;23.70;32.20;;;;;;6182454;28;20034;-82
2021/04/25 09:30:32;;;;;;;4.95;2.88;;;23.80;32.00;;;;;;6168329;28;20070;-81
2021/04/25 09:33:50;;;;;;;4.32;2.60;;;23.80;31.90;;;;;;6198660;28;20411;-82
2021/04/25 09:36:52;;;;;;;6.95;2.40;;;23.90;31.70;;;;;;6177718;28;20034;-81
2021/04/25 09:40:10;;;;;;;6.40;2.60;;;24.00;31.50;;;;;;6182461;28;20365;-80
2021/04/25 09:43:13;;;;;;;4.57;2.50;;;24.10;30.90;;;;;;6160521;28;20035;-81
2021/04/25 09:46:16;;;;;;;6.93;2.30;;;24.10;31.00;;;;;;6183916;28;20070;-82
2021/04/25 09:49:40;;;;;;;6.32;2.25;;;24.10;30.90;;;;;;6209963;28;20050;-80
2021/04/25 09:52:44;;;;;;;3.95;2.38;;;24.20;30.30;;;;;;6185587;28;20042;-80
2021/04/25 09:55:56;;;;;;;9.20;2.03;;;24.30;30.10;;;;;;6180573;28;20096;-81
2021/04/25 09:58:58;;;;;;;2.45;2.05;;;24.30;30.10;;;;;;6218054;28;20096;-80
2021/04/25 10:02:07;;;;;;;8.68;2.50;;;24.30;30.00;;;;;;6202190;28;20026;-80
2021/04/25 10:05:09;;;;;;;3.20;2.20;;;24.40;29.70;;;;;;6227342;28;20082;-80
2021/04/25 10:08:32;;;;;;;2.78;2.17;;;24.50;29.60;;;;;;6228005;28;20030;-80
2021/04/25 10:11:50;;;;;;;5.53;2.47;;;24.50;29.50;;;;;;6223831;28;20034;-80
2021/04/25 10:14:51;;;;;;;3.30;2.33;;;24.60;29.40;;;;;;6206287;28;20424;-80
2021/04/25 10:17:54;;;;;;;4.15;2.30;;;24.70;29.10;;;;;;6220571;28;20026;-80
2021/04/25 10:20:57;;;;;;;4.85;2.15;;;24.70;29.10;;;;;;6210539;28;20657;-81
2021/04/25 10:24:03;;;;;;;3.28;2.50;;;24.70;28.90;;;;;;6213536;28;20041;-81
2021/04/25 10:27:08;;;;;;;7.45;2.40;;;24.70;28.90;;;;;;6203671;28;20038;-83
2021/04/25 10:30:12;;;;;;;3.70;2.17;;;24.70;28.70;;;;;;6203786;28;20158;-81
2021/04/25 10:33:14;;;;;;;3.92;2.70;;;24.80;29.00;;;;;;6186336;28;20030;-81
2021/04/25 10:36:16;;;;;;;5.53;2.22;;;24.90;29.00;;;;;;6228472;28;20040;-79
2021/04/25 10:39:34;;;;;;;3.47;2.50;;;24.90;28.80;;;;;;6199463;28;20030;-81
2021/04/25 10:42:37;;;;;;;3.88;2.40;;;24.90;28.80;;;;;;6186876;28;20413;-82
2021/04/25 10:45:58;;;;;;;2.80;2.10;;;25.10;28.60;;;;;;6173519;28;20461;-85
2021/04/25 10:49:35;;;;;;;3.78;2.00;;;25.30;28.50;;;;;;6187384;28;20416;-85
2021/04/25 10:52:37;;;;;;;4.45;2.83;;;26.00;28.20;;;;;;6156698;28;20377;-80
2021/04/25 10:55:38;;;;;;;4.10;2.90;;;26.60;27.40;;;;;;6161012;28;20201;-82
2021/04/25 10:58:47;;;;;;;3.78;2.80;;;27.20;27.00;;;;;;6176804;28;20351;-83
2021/04/25 11:01:50;;;;;;;5.35;2.58;;;27.80;26.60;;;;;;6144556;28;20142;-84
2021/04/25 11:05:04;;;;;;;4.03;2.63;;;28.20;26.00;;;;;;6176960;28;20525;-83
2021/04/25 11:08:14;;;;;;;3.70;2.38;;;28.80;25.40;;;;;;6179059;23;20755;-83
2021/04/25 11:11:39;;;;;;;4.82;2.20;;;29.10;24.90;;;;;;6148395;29;20039;-81
2021/04/25 11:14:40;;;;;;;2.83;2.30;;;29.50;24.80;;;;;;6155463;29;20102;-83
2021/04/25 11:17:41;;;;;;;3.28;2.33;;;29.90;24.40;;;;;;6138441;29;20064;-85
2021/04/25 11:20:43;;;;;;;2.85;2.13;;;30.20;24.10;;;;;;6154919;28;20160;-84
2021/04/25 11:23:44;;;;;;;4.15;1.98;;;30.20;23.80;;;;;;6123701;29;20027;-82
2021/04/25 11:26:47;;;;;;;4.00;2.30;;;30.10;23.50;;;;;;6137920;29;20047;-80
2021/04/25 11:29:50;;;;;;;2.50;1.90;;;29.90;23.40;;;;;;6153106;29;20034;-81
2021/04/25 11:32:51;;;;;;;6.82;2.38;;;29.90;23.80;;;;;;6152360;29;20046;-82
2021/04/25 11:35:52;;;;;;;2.70;1.95;;;30.00;23.50;;;;;;6153839;29;20034;-82
2021/04/25 11:38:56;;;;;;;3.78;2.00;;;30.10;23.50;;;;;;6140354;29;20038;-81
2021/04/25 11:41:59;;;;;;;3.03;1.70;;;30.10;23.80;;;;;;6153450;29;20042;-81
2021/04/25 11:45:09;;;;;;;6.47;2.33;;;30.20;23.40;;;;;;6155341;29;20047;-79
2021/04/25 11:48:10;;;;;;;3.30;1.85;;;30.20;23.10;;;;;;6126238;29;20094;-80
2021/04/25 11:51:14;;;;;;;4.30;2.25;;;30.00;23.10;;;;;;6152420;29;20391;-80
2021/04/25 11:54:22;;;;;;;2.65;1.70;;;30.00;23.30;;;;;;6135034;29;20457;-80
2021/04/25 11:57:23;;;;;;;3.80;2.35;;;30.10;23.30;;;;;;6132740;29;20034;-80
2021/04/25 12:00:30;;;;;;;3.20;2.13;;;30.30;23.20;;;;;;6151525;29;20023;-81
2021/04/25 12:03:31;;;;;;;3.50;2.20;;;30.40;23.10;;;;;;6134692;29;20458;-81
2021/04/25 12:06:46;;;;;;;3.05;2.38;;;30.40;23.10;;;;;;6134679;29;20035;-80
2021/04/25 12:09:47;;;;;;;3.67;2.33;;;30.30;23.00;;;;;;6150747;29;20043;-81
2021/04/25 12:13:09;;;;;;;5.60;2.13;;;30.30;22.80;;;;;;6149905;29;20042;-81
2021/04/25 12:16:17;;;;;;;5.43;2.40;;;30.40;22.80;;;;;;6149363;28;20335;-80
2021/04/25 12:19:21;;;;;;;3.67;2.20;;;30.60;22.40;;;;;;6148653;29;20023;-80
2021/04/25 12:22:23;;;;;;;7.45;2.25;;;30.50;22.40;;;;;;6127196;29;20501;-81
2021/04/25 12:25:27;;;;;;;4.15;2.28;;;30.40;22.60;;;;;;6150397;29;20070;-79
2021/04/25 12:29:01;;;;;;;3.85;2.10;;;30.30;22.80;;;;;;6136126;29;20035;-81
2021/04/25 12:32:03;;;;;;;2.92;1.80;;;30.30;22.80;;;;;;6134759;29;20038;-81
2021/04/25 12:35:05;;;;;;;2.20;1.90;;;30.70;22.40;;;;;;6148072;29;20067;-80
2021/04/25 12:38:18;;;;;;;5.00;2.30;;;31.20;22.10;;;;;;6148853;28;20191;-79
2021/04/25 12:41:23;;;;;;;2.53;2.05;;;31.70;22.00;;;;;;6153473;29;20027;-82
2021/04/25 12:44:37;;;;;;;4.43;2.17;;;31.90;21.40;;;;;;6155393;29;20030;-84
2021/04/25 12:47:40;;;;;;;2.88;1.90;;;32.00;21.30;;;;;;6145009;29;20031;-84
2021/04/25 12:50:42;;;;;;;6.57;2.33;;;32.20;21.20;;;;;;6142702;29;20093;-82
2021/04/25 12:53:57;;;;;;;4.20;1.95;;;32.20;21.10;;;;;;6121402;29;20422;-84
2021/04/25 12:56:58;;;;;;;2.53;1.77;;;32.30;20.90;;;;;;6149724;29;20031;-84
2021/04/25 12:59:59;;;;;;;3.85;2.20;;;32.30;20.70;;;;;;6153139;29;20027;-84
2021/04/25 13:03:25;;;;;;;2.38;1.80;;;32.30;20.70;;;;;;6140460;29;20031;-85
2021/04/25 13:06:27;;;;;;;3.80;1.80;;;32.40;20.50;;;;;;6150606;29;20043;-85
2021/04/25 13:09:28;;;;;;;3.70;2.08;;;32.20;20.40;;;;;;6120288;29;20395;-84
2021/04/25 13:12:32;;;;;;;1.80;1.70;;;31.80;20.70;;;;;;6136468;29;20036;-84
2021/04/25 13:15:40;;;;;;;5.95;1.90;;;31.50;20.90;;;;;;6135241;29;20043;-85
2021/04/25 13:18:41;;;;;;;2.65;2.20;;;31.30;21.10;;;;;;6151635;29;20039;-85
2021/04/25 13:21:47;;;;;;;5.60;2.22;;;31.60;20.90;;;;;;6153250;29;20127;-84
2021/04/25 13:24:50;;;;;;;4.18;1.80;;;32.10;20.60;;;;;;6136348;29;20027;-85
2021/04/25 13:27:55;;;;;;;2.35;1.95;;;32.60;20.20;;;;;;6152679;28;20043;-85
2021/04/25 13:31:03;;;;;;;7.45;2.10;;;32.80;20.30;;;;;;6156473;29;20366;-83
2021/04/25 13:34:04;;;;;;;2.08;1.88;;;32.90;20.10;;;;;;6143254;29;20378;-86
2021/04/25 13:37:07;;;;;;;2.95;2.40;;;32.80;20.10;;;;;;6141113;29;20076;-86
2021/04/25 13:40:10;;;;;;;2.17;1.95;;;32.60;20.30;;;;;;6157723;29;20209;-86
2021/04/25 13:43:11;;;;;;;2.55;2.05;;;32.80;20.20;;;;;;6128429;29;20031;-85
2021/04/25 13:46:12;;;;;;;3.72;1.80;;;32.90;20.20;;;;;;6148283;29;20039;-84
2021/04/25 13:49:14;;;;;;;2.65;1.95;;;32.70;20.40;;;;;;6144666;29;20075;-85
2021/04/25 13:52:15;;;;;;;5.18;2.03;;;32.60;20.60;;;;;;6142991;29;20450;-86
2021/04/25 13:55:17;;;;;;;8.95;2.38;;;32.60;20.60;;;;;;6141466;29;20041;-85
2021/04/25 13:58:19;;;;;;;5.05;2.08;;;32.80;20.60;;;;;;6125133;29;20066;-85
2021/04/25 14:01:21;;;;;;;2.72;2.10;;;33.20;20.30;;;;;;6140996;29;20123;-84
2021/04/25 14:04:34;;;;;;;;;;;;;;;;;;;;;
2021/04/25 14:07:39;;;;;;;3.17;2.17;;;33.10;20.30;;;;;;6153299;29;20037;-83
2021/04/25 14:10:42;;;;;;;6.28;2.05;;;32.90;20.40;;;;;;6139966;29;20540;-85
2021/04/25 14:13:48;;;;;;;2.38;1.92;;;32.70;20.50;;;;;;6140449;29;20035;-85
2021/04/25 14:16:49;;;;;;;2.08;1.83;;;32.80;20.60;;;;;;6127640;29;20047;-85
2021/04/25 14:19:51;;;;;;;2.20;1.88;;;32.90;20.60;;;;;;6140242;29;20042;-83
2021/04/25 14:22:52;;;;;;;3.95;2.10;;;32.80;20.70;;;;;;6141385;29;20046;-85
2021/04/25 14:25:53;;;;;;;3.10;2.17;;;32.50;20.90;;;;;;6157334;29;20019;-83
2021/04/25 14:28:54;;;;;;;4.13;2.20;;;32.10;21.20;;;;;;6125338;29;20098;-82
2021/04/25 14:31:57;;;;;;;3.25;2.28;;;31.70;21.60;;;;;;6133554;29;20039;-87
2021/04/25 14:35:08;;;;;;;2.30;1.92;;;31.20;22.00;;;;;;6168619;29;20082;-82
2021/04/25 14:38:15;;;;;;;5.15;2.20;;;31.00;22.40;;;;;;6153115;29;20057;-84
2021/04/25 14:41:24;;;;;;;3.90;2.40;;;30.60;22.60;;;;;;6152054;29;20032;-84
2021/04/25 14:44:29;;;;;;;3.45;2.38;;;30.20;23.00;;;;;;6167393;29;20114;-84
2021/04/25 14:47:32;;;;;;;2.45;1.80;;;29.90;23.20;;;;;;6162968;29;20070;-86
2021/04/25 14:50:49;;;;;;;2.67;1.98;;;29.60;24.10;;;;;;6166342;29;20035;-88
2021/04/25 14:53:50;;;;;;;3.63;1.90;;;29.50;23.80;;;;;;6164315;29;20039;-86
2021/04/25 14:56:53;;;;;;;2.95;1.95;;;29.30;23.90;;;;;;6129811;29;20035;-84
2021/04/25 14:59:55;;;;;;;2.05;1.77;;;29.10;24.00;;;;;;6160328;29;20198;-84
2021/04/25 15:03:01;;;;;;;3.78;2.10;;;29.00;24.20;;;;;;6162484;29;20020;-84
2021/04/25 15:06:10;;;;;;;2.38;1.85;;;28.80;24.30;;;;;;6162756;29;20051;-87
2021/04/25 15:09:16;;;;;;;4.63;1.90;;;28.70;24.50;;;;;;6160769;29;20126;-85
2021/04/25 15:12:23;;;;;;;6.63;2.50;;;28.60;24.60;;;;;;6143308;29;20031;-84
2021/04/25 15:15:29;;;;;;;3.40;2.10;;;28.50;24.80;;;;;;6160193;28;20082;-85
2021/04/25 15:18:38;;;;;;;5.10;2.50;;;28.30;25.00;;;;;;6159457;29;20166;-85
2021/04/25 15:21:43;;;;;;;2.42;1.98;;;28.10;25.20;;;;;;6162055;29;20031;-82
2021/04/25 15:24:48;;;;;;;5.38;2.45;;;28.00;25.50;;;;;;6145089;29;20031;-83
2021/04/25 15:27:54;;;;;;;3.28;2.05;;;27.90;25.90;;;;;;6144490;29;20529;-82
2021/04/25 15:30:56;;;;;;;2.83;2.20;;;27.70;26.10;;;;;;6142334;29;20039;-82
2021/04/25 15:33:57;;;;;;;4.88;2.47;;;27.60;26.50;;;;;;6161580;29;20031;-82
2021/04/25 15:37:04;;;;;;;2.83;2.03;;;27.50;26.90;;;;;;6160698;29;20039;-84
2021/04/25 15:40:36;;;;;;;5.38;2.53;;;27.30;26.90;;;;;;6170398;29;20489;-82
2021/04/25 15:43:41;;;;;;;4.50;1.90;;;27.30;27.10;;;;;;6169735;29;20026;-82
2021/04/25 15:46:42;;;;;;;3.92;2.53;;;27.20;27.20;;;;;;6171085;29;20030;-82
2021/04/25 15:50:01;;;;;;;2.35;2.10;;;27.20;27.20;;;;;;6169211;28;20034;-82
2021/04/25 15:53:02;;;;;;;2.65;2.10;;;27.10;27.40;;;;;;6155663;29;20051;-80
2021/04/25 15:56:24;;;;;;;5.43;2.30;;;27.00;27.40;;;;;;6153988;29;20017;-82
2021/04/25 16:00:00;;;;;;;2.42;2.00;;;26.90;27.50;;;;;;6171795;29;20055;-82